Stations météo

réclame
Mon MeteoGroup
Hupsel aws, Pays-Bas (6283): Température de l'air & dewpoint: 13.07.2019 00:00:00 - 19.07.2019 00:00:00 (CEST)Hupsel aws, Pays-Bas (6283): Température de l'air 5cm: 13.07.2019 00:00:00 - 19.07.2019 00:00:00 (CEST)Hupsel aws, Pays-Bas (6283): Vitesse du vent & gusts: 13.07.2019 00:00:00 - 19.07.2019 00:00:00 (CEST)Hupsel aws, Pays-Bas (6283): Direction du vent: 13.07.2019 00:00:00 - 19.07.2019 00:00:00 (CEST)Hupsel aws, Pays-Bas (6283): Quantités de précipitations: 13.07.2019 00:00:00 - 19.07.2019 00:00:00 (CEST)
Date & Time tt [°C] td [°C] tt 5cm [°C] ff [km/h] ff [knt] fx [km/h] fx [knt] dd rr [mm]
19.07.2019 00:00:00 17,9 15,5 17,1 4 2 - - SW -
18.07.2019 23:00:00 18,7 15,6 18,3 7 4 29 16 WSW 0,0
18.07.2019 22:00:00 20,1 14,2 18,8 7 4 14 8 SW 0,0
18.07.2019 21:00:00 20,9 13,7 20,3 7 4 11 6 WSW 0,0
18.07.2019 20:00:00 21,6 13,0 21,4 11 6 25 14 W 0,0
18.07.2019 19:00:00 22,1 12,9 22,5 14 8 29 16 W 0,0
18.07.2019 18:00:00 23,8 12,5 25,2 18 10 32 18 WSW 0,0
18.07.2019 17:00:00 25,1 11,5 26,1 18 10 29 16 WSW 0,0
18.07.2019 16:00:00 24,6 9,0 25,7 14 8 29 16 SSW 0,0
18.07.2019 15:00:00 25,6 11,8 27,2 14 8 29 16 SW 0,0
18.07.2019 14:00:00 25,7 12,0 28,6 11 6 25 14 SSW 0,0
18.07.2019 13:00:00 24,7 11,7 26,9 14 8 25 14 S 0,0
18.07.2019 12:00:00 24,7 11,5 27,5 14 8 29 16 S 0,0
18.07.2019 11:00:00 23,0 11,8 24,7 14 8 25 14 S 0,0
18.07.2019 10:00:00 21,2 12,1 22,3 14 8 29 16 SSE 0,0
18.07.2019 09:00:00 19,7 12,6 20,8 11 6 22 12 SSE 0,0
18.07.2019 08:00:00 16,8 13,1 16,8 7 4 14 8 SSE 0,0
18.07.2019 07:00:00 14,6 12,6 13,6 7 4 7 4 SSE 0,0
18.07.2019 06:00:00 13,5 12,0 11,9 4 2 11 6 SE 0,0
18.07.2019 05:00:00 12,3 11,5 9,9 4 2 11 6 SE 0,0
18.07.2019 04:00:00 12,3 11,4 10,1 4 2 11 6 SE 0,0
18.07.2019 03:00:00 13,7 12,0 10,7 7 4 11 6 SE 0,0
18.07.2019 02:00:00 13,4 11,8 10,1 7 4 11 6 SE 0,0
18.07.2019 01:00:00 12,7 11,5 10,2 7 4 11 6 ESE 0,0
18.07.2019 00:00:00 15,6 12,4 11,5 7 4 7 4 SE 0,0
17.07.2019 23:00:00 15,8 12,3 12,3 7 4 11 6 ESE 0,0
17.07.2019 22:00:00 16,2 12,7 13,8 7 4 7 4 E 0,0
17.07.2019 21:00:00 19,9 13,2 19,5 4 2 11 6 E 0,0
17.07.2019 20:00:00 22,0 11,7 22,3 7 4 11 6 E 0,0
17.07.2019 19:00:00 22,4 11,4 24,1 7 4 18 10 ENE 0,0
17.07.2019 18:00:00 22,2 11,6 23,1 7 4 18 10 NNE 0,0
17.07.2019 17:00:00 21,8 11,9 22,3 11 6 18 10 WNW 0,0
17.07.2019 16:00:00 23,4 11,2 26,8 7 4 14 8 ENE 0,0
17.07.2019 15:00:00 21,8 12,7 23,6 4 2 14 8 ESE 0,0
17.07.2019 14:00:00 21,5 13,2 22,5 7 4 14 8 WNW 0,0
17.07.2019 13:00:00 20,8 13,0 21,3 4 2 14 8 NE 0,0
17.07.2019 12:00:00 18,9 12,8 20,0 4 2 14 8 W 0,0
17.07.2019 11:00:00 18,2 12,5 19,4 4 2 11 6 W 0,0
17.07.2019 10:00:00 17,2 13,3 18,0 4 2 7 4 NNW 0,0
17.07.2019 09:00:00 16,8 12,9 17,8 4 2 11 6 NE 0,0
17.07.2019 08:00:00 15,7 13,1 16,6 4 2 7 4 ENE 0,0
17.07.2019 07:00:00 14,7 13,6 14,3 4 2 7 4 NW 0,0
17.07.2019 06:00:00 13,2 12,9 11,5 4 2 4 2 W 0,0
17.07.2019 05:00:00 14,9 13,6 14,4 0 0 7 4 N 0,0
17.07.2019 04:00:00 15,1 13,4 14,6 4 2 4 2 NNE 0,0
17.07.2019 03:00:00 15,2 13,6 14,7 4 2 4 2 NW 0,0
17.07.2019 02:00:00 15,2 13,6 14,8 4 2 7 4 N 0,0
17.07.2019 01:00:00 15,7 13,4 14,9 0 0 7 4 N 0,0
17.07.2019 00:00:00 15,8 13,2 15,0 0 0 4 2 N 0,0
16.07.2019 23:00:00 15,9 13,5 15,2 0 0 4 2 N 0,0
16.07.2019 22:00:00 16,3 13,1 15,8 4 2 7 4 NW 0,0
16.07.2019 21:00:00 16,8 12,4 16,4 4 2 11 6 W 0,0
16.07.2019 20:00:00 17,0 12,5 16,9 7 4 11 6 NNW 0,0
16.07.2019 19:00:00 17,1 12,5 17,2 4 2 14 8 NW 0,0
16.07.2019 18:00:00 17,4 12,5 17,8 7 4 11 6 W 0,0
16.07.2019 17:00:00 17,4 12,4 17,9 7 4 18 10 WNW 0,0
16.07.2019 16:00:00 17,5 12,2 18,7 7 4 18 10 W 0,0
16.07.2019 15:00:00 17,1 12,0 18,4 11 6 18 10 W 0,0
16.07.2019 14:00:00 16,8 11,9 18,4 11 6 18 10 WNW 0,0
16.07.2019 13:00:00 16,1 11,9 16,9 11 6 14 8 W 0,0
16.07.2019 12:00:00 15,4 12,0 16,1 11 6 18 10 W 0,0
16.07.2019 11:00:00 15,0 11,8 - 11 6 18 10 W 0,0
16.07.2019 10:00:00 14,9 11,4 15,5 11 6 18 10 W 0,0
16.07.2019 09:00:00 14,4 11,3 15,0 11 6 18 10 W 0,0
16.07.2019 08:00:00 14,1 11,3 14,2 11 6 18 10 W 0,0
16.07.2019 07:00:00 13,6 12,3 13,5 4 2 11 6 W 0,0
16.07.2019 06:00:00 13,4 12,3 13,2 7 4 11 6 W 0,0
16.07.2019 05:00:00 13,7 11,5 13,3 7 4 11 6 W 0,0
16.07.2019 04:00:00 14,0 10,6 13,4 7 4 22 12 WNW 0,0
16.07.2019 03:00:00 13,8 10,9 13,4 7 4 18 10 NW 0,0
16.07.2019 02:00:00 13,9 11,2 13,5 11 6 18 10 NW 0,0
16.07.2019 01:00:00 13,4 10,8 11,5 7 4 11 6 WNW 0,0
16.07.2019 00:00:00 11,0 9,4 7,5 4 2 7 4 WNW 0,0
15.07.2019 23:00:00 13,0 9,8 10,4 7 4 14 8 WNW 0,0
15.07.2019 22:00:00 14,0 9,9 12,8 11 6 25 14 WNW 0,0
15.07.2019 21:00:00 16,1 9,8 15,6 14 8 29 16 NW 0,0
15.07.2019 20:00:00 18,1 10,2 18,6 18 10 25 14 WNW 0,0
15.07.2019 19:00:00 18,7 11,4 19,5 14 8 32 18 NW 0,0
15.07.2019 18:00:00 18,9 11,3 20,4 14 8 29 16 WNW 0,0
15.07.2019 17:00:00 19,3 10,7 19,7 14 8 29 16 W 0,0
15.07.2019 16:00:00 18,4 9,6 19,4 14 8 25 14 NW 0,0
15.07.2019 15:00:00 17,2 9,6 18,5 18 10 29 16 WNW 0,0
15.07.2019 14:00:00 17,0 9,3 18,1 14 8 25 14 NW 0,0
15.07.2019 13:00:00 15,4 10,5 16,3 11 6 22 12 WNW 0,0
15.07.2019 12:00:00 15,2 10,1 16,0 11 6 18 10 WNW 0,0
15.07.2019 11:00:00 14,4 10,1 15,0 11 6 18 10 N 0,0
15.07.2019 10:00:00 13,8 10,2 15,1 7 4 18 10 WNW 0,0
15.07.2019 09:00:00 13,0 10,7 13,3 14 8 22 12 NW 0,0
15.07.2019 08:00:00 13,4 9,6 13,3 11 6 14 8 NW 0,0
15.07.2019 07:00:00 13,3 10,7 13,2 11 6 14 8 NW 0,0
15.07.2019 06:00:00 13,5 10,4 13,1 7 4 14 8 NW 0,0
15.07.2019 05:00:00 13,5 11,1 13,2 7 4 11 6 NW 0,0
15.07.2019 04:00:00 13,7 10,8 13,4 11 6 18 10 N 0,0
15.07.2019 03:00:00 14,0 11,1 13,7 7 4 11 6 NNW 0,0
15.07.2019 02:00:00 14,4 10,2 13,7 7 4 14 8 NW 0,0
15.07.2019 01:00:00 14,4 10,2 13,9 7 4 11 6 NNW 0,0
15.07.2019 00:00:00 14,6 9,7 14,1 7 4 18 10 NNW 0,0
14.07.2019 23:00:00 14,8 10,3 14,5 7 4 18 10 NNW 0,0
14.07.2019 22:00:00 14,7 11,0 14,2 7 4 22 12 NNW 0,0
14.07.2019 21:00:00 15,8 10,4 15,5 18 10 25 14 NNW 0,0
14.07.2019 20:00:00 17,2 10,7 17,1 18 10 29 16 NNW 0,0
14.07.2019 19:00:00 17,9 11,5 18,1 14 8 25 14 NW 0,0
14.07.2019 18:00:00 18,2 11,8 18,7 11 6 25 14 NNW 0,0
14.07.2019 17:00:00 18,5 11,6 19,7 14 8 25 14 N 0,0
14.07.2019 16:00:00 17,8 11,9 18,3 18 10 25 14 NNW 0,0
14.07.2019 15:00:00 18,1 11,9 18,7 11 6 22 12 N 0,0
14.07.2019 14:00:00 18,2 12,1 19,4 7 4 18 10 NNW 0,0
14.07.2019 13:00:00 17,4 11,1 19,6 11 6 18 10 N 0,0
14.07.2019 12:00:00 16,5 11,1 17,2 11 6 25 14 NNW 0,0
14.07.2019 11:00:00 15,6 10,7 15,8 11 6 29 16 NW 0,0
14.07.2019 10:00:00 15,1 10,5 15,4 14 8 22 12 NW 0,0
14.07.2019 09:00:00 14,5 10,7 15,0 11 6 22 12 N 0,0
14.07.2019 08:00:00 14,2 10,7 14,4 11 6 22 12 N 0,0
14.07.2019 07:00:00 13,7 10,4 13,5 11 6 14 8 NW 0,0
14.07.2019 06:00:00 13,7 9,8 13,2 7 4 14 8 NW 0,0
14.07.2019 05:00:00 13,7 9,1 13,1 7 4 14 8 WNW 0,0
14.07.2019 04:00:00 13,9 9,4 13,3 7 4 22 12 NW 0,0
14.07.2019 03:00:00 14,1 8,8 13,7 14 8 25 14 N 0,0
14.07.2019 02:00:00 14,3 9,8 13,9 14 8 25 14 NW 0,0
14.07.2019 01:00:00 15,0 11,3 14,7 18 10 25 14 NNW 0,0
14.07.2019 00:00:00 15,4 11,7 15,0 11 6 18 10 NW 0,0
13.07.2019 23:00:00 15,5 12,4 15,1 14 8 22 12 NW 0,0
13.07.2019 22:00:00 15,1 13,4 14,9 18 10 29 16 NW 0,0
13.07.2019 21:00:00 16,6 12,4 16,4 14 8 32 18 NNW 0,0
13.07.2019 20:00:00 18,1 12,1 18,5 22 12 32 18 NW 0,0
13.07.2019 19:00:00 20,3 12,5 21,4 25 14 40 21 NW 0,0
13.07.2019 18:00:00 21,1 12,5 23,0 25 14 36 19 NW 0,0
13.07.2019 17:00:00 20,8 13,9 23,0 18 10 29 16 WNW 0,0
13.07.2019 16:00:00 20,2 14,6 22,3 11 6 22 12 WNW 0,0
13.07.2019 15:00:00 19,1 14,2 20,7 14 8 25 14 NNW 0,0
13.07.2019 14:00:00 19,6 13,7 20,5 14 8 25 14 NW 0,0
13.07.2019 13:00:00 19,6 13,6 21,2 14 8 22 12 NW 0,0
13.07.2019 12:00:00 18,3 13,2 18,8 14 8 25 14 NW 0,0
13.07.2019 11:00:00 17,0 13,1 17,6 18 10 25 14 NW 0,0
13.07.2019 10:00:00 16,8 13,3 16,9 14 8 25 14 NW 0,0
13.07.2019 09:00:00 16,2 13,6 16,3 14 8 22 12 NW 0,0
13.07.2019 08:00:00 15,9 14,0 15,9 11 6 18 10 NW 0,0
13.07.2019 07:00:00 15,7 14,6 15,5 11 6 18 10 NW 0,0
13.07.2019 06:00:00 15,5 15,2 15,2 7 4 18 10 WNW 0,0
13.07.2019 05:00:00 15,2 15,0 14,7 7 4 11 6 W 0,0
13.07.2019 04:00:00 15,5 15,2 15,2 7 4 11 6 WNW 0,0
13.07.2019 03:00:00 15,4 15,0 15,1 4 2 14 8 W 0,0
13.07.2019 02:00:00 15,3 14,8 15,0 7 4 14 8 W 0,0
13.07.2019 01:00:00 15,4 14,7 15,0 7 4 14 8 W 0,0
13.07.2019 00:00:00 15,4 14,7 14,9 7 4 14 8 W 0,0

tt = Température de l'air
td = dewpoint
tt 5cm = Température de l'air 5cm
ff = Vitesse du vent
fx = gusts
dd = Direction du vent
rr = Quantités de précipitations

stations d'obs. à proximité